GRU weather

Guarulhos - Governador André Franco Montoro International Airport
São Paulo, São Paulo, Brazil

Public forecast

Using degrees Celsius for public forecast. Weather courtesy of forecast.io.

METAR (pilot weather report)

Retrieved 2018/09/22 18:00 UTC (23 minutes ago):

SBGR 221800Z 14003KT CAVOK 28/15 Q1016

TAF (pilot weather forecast)

Retrieved 2018/09/22 18:27 UTC (0 seconds ago):

TAF TAF SBGR 221500Z 2218/2324 15008KT 9999 FEW040TN15/2309Z TX30/2317Z BECMG 2220/2222 07003KT CAVOK PROB30 2306/2310 0400 FG BKN002 BECMG 2313/2315 32005KT BECMG 2320/2322 15003KT RMK PGH